Time;durP1;ratioP1;P1;durP2;ratioP2;P2;SDS_P1;SDS_P2;PMS_P1;PMS_P2;Temp;Humidity;BMP_temperature;BMP_pressure;BME280_temperature;BME280_humidity;BME280_pressure;Samples;Min_cycle;Max_cycle;Signal;HPM_P1;HPM_P2
2021/07/25 00:00:44;;;;;;;5.15;4.00;;;;;;;27.95;38.28;101184.31;144992;586;6002;-85
2021/07/25 00:03:10;;;;;;;5.50;4.05;;;;;;;27.96;38.00;101190.53;144992;682;6002;-88
2021/07/25 00:05:41;;;;;;;6.87;4.25;;;;;;;27.92;38.12;101189.75;144992;592;6002;-89
2021/07/25 00:08:13;;;;;;;9.45;4.18;;;;;;;27.91;38.08;101187.97;144992;569;6002;-86
2021/07/25 00:10:47;;;;;;;8.20;4.12;;;;;;;27.90;37.87;101183.56;144992;589;6002;-88
2021/07/25 00:13:16;;;;;;;10.10;4.60;;;;;;;27.83;37.38;101184.72;144992;591;6002;-88
2021/07/25 00:15:43;;;;;;;6.97;4.55;;;;;;;27.69;38.27;101187.84;144992;569;6002;-87
2021/07/25 00:18:10;;;;;;;6.82;4.32;;;;;;;27.64;38.73;101182.69;144992;565;6002;-87
2021/07/25 00:20:37;;;;;;;7.75;4.35;;;;;;;27.68;38.85;101180.81;144992;667;6002;-86
2021/07/25 00:23:05;;;;;;;6.90;4.60;;;;;;;27.71;38.84;101178.00;144992;564;6002;-86
2021/07/25 00:25:33;;;;;;;5.93;4.32;;;;;;;27.75;38.85;101179.66;144992;634;6002;-87
2021/07/25 00:28:00;;;;;;;5.50;4.25;;;;;;;27.74;39.24;101177.03;144992;570;6002;-87
2021/07/25 00:30:26;;;;;;;5.97;4.20;;;;;;;27.76;39.04;101178.72;144992;600;6002;-87
2021/07/25 00:32:55;;;;;;;5.82;4.25;;;;;;;27.79;39.02;101172.41;144992;626;6002;-87
2021/07/25 00:35:21;;;;;;;4.57;4.18;;;;;;;27.80;39.06;101169.69;144992;600;6002;-86
2021/07/25 00:37:53;;;;;;;7.40;4.20;;;;;;;27.83;38.94;101169.56;144992;763;6002;-88
2021/07/25 00:40:59;;;;;;;9.23;5.12;;;;;;;27.88;38.71;101177.41;144992;606;6002;-87
2021/07/25 00:43:27;;;;;;;9.80;5.12;;;;;;;27.90;38.80;101175.56;144992;594;6004;-85
2021/07/25 00:45:58;;;;;;;10.70;6.18;;;;;;;27.89;38.76;101179.16;144992;583;6004;-86
2021/07/25 00:48:25;;;;;;;11.77;7.97;;;;;;;27.72;40.46;101165.56;144992;595;6004;-86
2021/07/25 00:51:12;;;;;;;13.00;7.50;;;;;;;27.61;39.84;101176.59;144992;605;6004;-87
2021/07/25 00:53:41;;;;;;;12.18;7.45;;;;;;;27.59;39.94;101173.97;144992;643;6004;-88
2021/07/25 00:56:12;;;;;;;13.00;8.13;;;;;;;27.60;40.13;101178.41;144992;597;6004;-87
2021/07/25 00:58:43;;;;;;;15.23;8.23;;;;;;;27.46;41.81;101170.84;144992;633;6004;-89
2021/07/25 01:01:14;;;;;;;15.38;8.07;;;;;;;27.43;40.70;101168.28;144992;672;6004;-86
2021/07/25 01:04:09;;;;;;;11.07;7.70;;;;;;;27.46;40.88;101170.00;144992;800;6004;-88
2021/07/25 01:07:10;;;;;;;12.37;7.85;;;;;;;27.48;40.82;101176.13;144992;600;6002;-86
2021/07/25 01:10:18;;;;;;;11.60;6.90;;;;;;;27.38;41.19;101182.69;144992;884;6004;-83
2021/07/25 01:12:51;;;;;;;8.82;6.07;;;;;;;27.20;41.36;101192.97;144992;731;6002;-88
2021/07/25 01:15:26;;;;;;;9.10;5.55;;;;;;;27.20;41.33;101184.12;144992;617;6002;-88
2021/07/25 01:17:57;;;;;;;9.02;5.53;;;;;;;27.14;41.25;101186.06;144992;590;6002;-86
2021/07/25 01:20:24;;;;;;;12.65;5.68;;;;;;;27.13;40.98;101188.78;144992;570;6002;-87
2021/07/25 01:22:53;;;;;;;8.07;5.32;;;;;;;27.08;41.21;101180.06;144992;652;6002;-87
2021/07/25 01:25:23;;;;;;;7.22;5.60;;;;;;;27.09;40.93;101192.47;144992;598;6002;-89
2021/07/25 01:28:06;;;;;;;11.12;5.85;;;;;;;27.18;41.02;101191.31;144992;609;6002;-88
2021/07/25 01:30:39;;;;;;;7.00;5.53;;;;;;;27.27;40.92;101189.22;144992;577;6002;-88
2021/07/25 01:33:11;;;;;;;7.00;5.80;;;;;;;27.33;40.87;101190.84;144992;871;6002;-88
2021/07/25 01:35:42;;;;;;;6.72;5.32;;;;;;;27.36;40.97;101190.72;144992;710;6002;-87
2021/07/25 01:38:09;;;;;;;7.62;5.15;;;;;;;27.40;40.58;101192.38;144992;588;6002;-88
2021/07/25 01:40:36;;;;;;;9.52;5.35;;;;;;;27.33;40.80;101193.53;144992;569;6002;-86
2021/07/25 01:43:03;;;;;;;7.43;5.20;;;;;;;27.36;40.86;101201.38;144992;596;6002;-87
2021/07/25 01:45:31;;;;;;;6.25;5.22;;;;;;;27.38;40.65;101199.56;144992;606;6002;-88
2021/07/25 01:48:08;;;;;;;9.55;5.40;;;;;;;27.33;40.76;101196.19;144992;576;6002;-87
2021/07/25 01:50:35;;;;;;;5.68;4.55;;;;;;;27.36;40.74;101193.37;144992;593;6002;-88
2021/07/25 01:53:01;;;;;;;7.32;4.72;;;;;;;27.37;40.43;101197.81;144992;584;6002;-86
2021/07/25 01:55:28;;;;;;;6.37;5.00;;;;;;;27.35;40.86;101215.66;144992;563;6002;-87
2021/07/25 01:57:54;;;;;;;7.40;4.85;;;;;;;27.33;40.81;101218.38;144992;577;6002;-86
2021/07/25 02:00:21;;;;;;;8.27;5.05;;;;;;;27.32;40.89;101205.94;144992;913;6002;-88
2021/07/25 02:02:47;;;;;;;7.37;4.97;;;;;;;27.24;40.94;101202.63;144992;585;6002;-87
2021/07/25 02:05:14;;;;;;;6.05;4.78;;;;;;;27.27;40.98;101201.69;144992;568;6002;-90
2021/07/25 02:07:40;;;;;;;10.02;5.00;;;;;;;27.24;41.13;101207.97;144992;723;6002;-87
2021/07/25 02:10:08;;;;;;;8.43;4.95;;;;;;;27.24;41.15;101207.97;144992;654;6002;-87
2021/07/25 02:12:34;;;;;;;8.02;5.47;;;;;;;27.24;40.98;101207.97;144992;582;6002;-89
2021/07/25 02:15:01;;;;;;;8.95;5.20;;;;;;;27.26;40.90;101210.59;144991;860;6002;-86
2021/07/25 02:17:27;;;;;;;7.50;4.62;;;;;;;27.24;41.24;101209.78;144992;677;6002;-86
2021/07/25 02:19:54;;;;;;;7.20;5.20;;;;;;;27.16;40.93;101210.00;144992;596;6002;-85
2021/07/25 02:22:20;;;;;;;8.07;5.07;;;;;;;27.17;41.31;101206.44;144992;569;6002;-87
2021/07/25 02:24:47;;;;;;;9.18;5.07;;;;;;;27.21;41.28;101207.19;144992;583;6002;-87
2021/07/25 02:27:14;;;;;;;5.80;4.40;;;;;;;27.18;40.91;101202.81;144992;571;6002;-85
2021/07/25 02:29:41;;;;;;;8.32;4.72;;;;;;;27.20;41.30;101198.31;144992;569;6002;-87
2021/07/25 02:32:09;;;;;;;5.35;4.62;;;;;;;27.26;41.33;101199.91;144992;566;6002;-87
2021/07/25 02:34:36;;;;;;;9.40;4.62;;;;;;;27.34;40.92;101197.91;144992;618;6010;-87
2021/07/25 02:37:04;;;;;;;7.47;5.07;;;;;;;27.34;41.28;101200.56;144992;586;6002;-87
2021/07/25 02:39:30;;;;;;;6.53;4.62;;;;;;;27.35;41.07;101191.66;144992;588;6002;-87
2021/07/25 02:41:57;;;;;;;6.43;4.93;;;;;;;27.36;41.28;101198.72;144992;581;6002;-87
2021/07/25 02:44:24;;;;;;;10.02;4.57;;;;;;;27.33;40.96;101194.38;144992;914;6002;-88
2021/07/25 02:46:50;;;;;;;9.13;5.10;;;;;;;27.29;40.99;101192.69;144992;902;6002;-86
2021/07/25 02:49:17;;;;;;;9.10;5.20;;;;;;;27.17;41.42;101198.44;144992;870;6002;-88
2021/07/25 02:51:43;;;;;;;10.32;5.50;;;;;;;27.15;41.53;101208.25;144992;676;6002;-88
2021/07/25 02:54:10;;;;;;;6.30;4.95;;;;;;;27.12;41.29;101214.56;144992;637;6002;-87
2021/07/25 02:56:37;;;;;;;5.95;4.53;;;;;;;26.96;41.67;101218.62;144992;913;6002;-88
2021/07/25 02:59:03;;;;;;;5.07;4.53;;;;;;;26.84;40.96;101219.87;144992;566;6002;-87
2021/07/25 03:01:30;;;;;;;7.53;4.95;;;;;;;26.82;41.69;101226.16;144992;583;6002;-87
2021/07/25 03:03:57;;;;;;;7.65;4.70;;;;;;;26.79;41.39;101228.00;144992;585;6002;-88
2021/07/25 03:06:23;;;;;;;6.15;4.70;;;;;;;26.77;41.60;101226.28;144992;578;6002;-87
2021/07/25 03:08:49;;;;;;;8.77;5.03;;;;;;;26.79;41.76;101228.00;144992;569;6002;-87
2021/07/25 03:11:16;;;;;;;7.43;4.95;;;;;;;26.76;42.21;101233.41;144992;602;6002;-86
2021/07/25 03:14:00;;;;;;;8.88;5.00;;;;;;;26.75;42.01;101236.97;144992;737;6003;-81
2021/07/25 03:16:27;;;;;;;10.85;5.30;;;;;;;26.81;42.14;101240.41;144992;851;6002;-89
2021/07/25 03:18:53;;;;;;;7.32;5.30;;;;;;;26.89;42.39;101236.56;144992;570;6002;-85
2021/07/25 03:21:20;;;;;;;12.07;5.35;;;;;;;26.88;43.19;101239.28;144992;587;6002;-85
2021/07/25 03:23:47;;;;;;;8.05;5.20;;;;;;;26.95;42.60;101249.72;144993;588;6002;-86
2021/07/25 03:26:14;;;;;;;7.07;5.55;;;;;;;27.02;42.34;101257.53;144993;565;6002;-88
2021/07/25 03:28:40;;;;;;;10.10;5.43;;;;;;;27.06;42.58;101256.50;144993;840;6002;-86
2021/07/25 03:31:09;;;;;;;8.30;5.30;;;;;;;27.04;42.70;101269.88;144993;912;6002;-87
2021/07/25 03:34:03;;;;;;;;;;;;;;;;;;;;;
2021/07/25 03:37:07;;;;;;;7.22;4.85;;;;;;;27.03;42.87;101268.13;144993;611;6000;-83
2021/07/25 03:40:07;;;;;;;9.10;5.15;;;;;;;27.10;42.87;101267.00;144993;620;6002;-83
2021/07/25 03:43:00;;;;;;;11.27;5.60;;;;;;;27.25;42.97;101263.03;144993;624;6002;-83
2021/07/25 03:45:55;;;;;;;;;;;;;;;;;;;;;
2021/07/25 03:48:52;;;;;;;;;;;;;;;;;;;;;
2021/07/25 03:51:58;;;;;;;;;;;;;;;;;;;;;
2021/07/25 03:54:42;;;;;;;6.28;4.85;;;;;;;27.60;42.49;101281.50;144993;596;6000;-88
2021/07/25 03:57:57;;;;;;;;;;;;;;;;;;;;;
2021/07/25 04:00:46;;;;;;;;;;;;;;;;;;;;;
2021/07/25 04:03:46;;;;;;;8.00;5.53;;;;;;;27.62;42.79;101280.53;144992;563;6002;-83
2021/07/25 04:06:14;;;;;;;8.77;5.97;;;;;;;27.68;42.60;101279.47;144992;576;6002;-88
2021/07/25 04:08:49;;;;;;;8.43;5.40;;;;;;;27.65;42.82;101285.78;144992;593;6002;-87
2021/07/25 04:11:20;;;;;;;7.93;5.40;;;;;;;27.65;42.48;101282.25;144993;796;6002;-85
2021/07/25 04:13:48;;;;;;;9.07;5.80;;;;;;;27.62;42.62;101293.88;144993;662;6002;-86
2021/07/25 04:16:15;;;;;;;11.15;5.65;;;;;;;27.60;42.65;101292.16;144993;587;6002;-88
2021/07/25 04:18:42;;;;;;;8.52;5.55;;;;;;;27.54;42.41;101289.69;144993;563;6002;-87
2021/07/25 04:21:36;;;;;;;7.45;5.50;;;;;;;27.47;42.73;101297.00;144993;574;6002;-85
2021/07/25 04:24:32;;;;;;;5.78;4.87;;;;;;;27.44;42.91;101298.00;144993;596;6002;-86
2021/07/25 04:27:20;;;;;;;9.50;5.85;;;;;;;27.50;42.82;101312.91;144993;668;6002;-82
2021/07/25 04:30:23;;;;;;;10.35;6.47;;;;;;;27.56;43.14;101310.06;144993;580;6002;-87
2021/07/25 04:33:20;;;;;;;;;;;;;;;;;;;;;
2021/07/25 04:36:10;;;;;;;11.68;5.78;;;;;;;27.65;43.21;101303.56;144993;723;6000;-84
2021/07/25 04:38:37;;;;;;;18.77;6.37;;;;;;;27.72;42.63;101306.91;144993;651;6002;-86
2021/07/25 04:41:09;;;;;;;7.43;5.57;;;;;;;27.69;42.98;101314.06;144993;679;6002;-86
2021/07/25 04:43:37;;;;;;;6.93;5.50;;;;;;;27.72;42.71;101310.44;144993;569;6002;-88
2021/07/25 04:46:11;;;;;;;11.00;6.10;;;;;;;27.77;42.97;101310.28;144993;598;6002;-86
2021/07/25 04:48:50;;;;;;;;;;;;;;;27.78;42.84;101320.03;144997;912;6002;-88
2021/07/25 04:51:21;;;;;;;6.07;5.28;;;;;;;27.73;43.11;101321.97;144998;906;5002;-86
2021/07/25 04:54:25;;;;;;;8.45;5.35;;;;;;;27.72;43.39;101318.44;144993;569;6002;-82
2021/07/25 04:57:12;;;;;;;10.82;5.45;;;;;;;27.79;43.28;101325.34;144993;569;6004;-81
2021/07/25 05:00:14;;;;;;;;;;;;;;;;;;;;;
2021/07/25 05:03:03;;;;;;;6.10;5.20;;;;;;;28.01;43.04;101325.53;144994;569;5004;-84
2021/07/25 05:05:52;;;;;;;9.77;5.25;;;;;;;28.08;42.79;101328.84;144994;630;5004;-86
2021/07/25 05:08:41;;;;;;;10.88;5.30;;;;;;;28.16;42.85;101323.25;144994;564;5004;-89
2021/07/25 05:11:45;;;;;;;7.32;5.22;;;;;;;28.27;43.00;101326.44;144993;565;5004;-81
2021/07/25 05:14:58;;;;;;;9.10;5.32;;;;;;;28.38;42.71;101326.03;144994;616;5002;-87
2021/07/25 05:18:10;;;;;;;;;;;;;;;;;;;;;
2021/07/25 05:21:26;;;;;;;5.78;4.62;;;;;;;28.55;42.41;101331.66;144994;595;5004;-88
2021/07/25 05:23:55;;;;;;;6.85;4.68;;;;;;;28.66;42.15;101325.09;144994;573;5004;-87
2021/07/25 05:27:06;;;;;;;;;;;;;;;;;;;;;
2021/07/25 05:29:35;;;;;;;8.93;5.32;;;;;;;28.65;42.12;101337.59;144994;573;5002;-87
2021/07/25 05:32:01;;;;;;;5.35;4.70;;;;;;;28.63;42.33;101341.22;144994;569;5002;-87
2021/07/25 05:34:31;;;;;;;6.80;4.97;;;;;;;28.60;42.03;101342.19;144994;582;5002;-86
2021/07/25 05:36:57;;;;;;;7.87;5.15;;;;;;;28.59;41.96;101341.34;144994;572;5002;-86
2021/07/25 05:39:24;;;;;;;6.68;5.18;;;;;;;28.55;42.13;101342.31;144994;593;5002;-87
2021/07/25 05:41:50;;;;;;;7.18;5.20;;;;;;;28.52;42.44;101336.22;144994;589;5002;-87
2021/07/25 05:44:17;;;;;;;8.77;4.80;;;;;;;28.56;42.33;101344.06;144994;570;5002;-88
2021/07/25 05:46:43;;;;;;;6.43;4.75;;;;;;;28.58;42.76;101349.41;144994;612;5002;-86
2021/07/25 05:49:20;;;;;;;8.35;5.37;;;;;;;28.68;42.44;101349.94;144994;648;5002;-80
2021/07/25 05:51:48;;;;;;;6.85;4.80;;;;;;;28.81;42.49;101353.03;144994;655;5002;-85
2021/07/25 05:54:15;;;;;;;7.20;5.12;;;;;;;28.90;42.38;101363.38;144994;569;5002;-84
2021/07/25 05:56:41;;;;;;;7.75;4.87;;;;;;;28.99;42.22;101371.06;144994;587;5002;-86
2021/07/25 05:59:10;;;;;;;6.57;4.60;;;;;;;29.02;42.22;101368.28;144994;603;5002;-87
2021/07/25 06:01:39;;;;;;;5.80;4.78;;;;;;;28.96;42.32;101371.19;144994;723;5002;-87
2021/07/25 06:04:06;;;;;;;9.25;4.30;;;;;;;28.95;41.94;101364.09;144994;580;5002;-85
2021/07/25 06:06:33;;;;;;;8.25;4.32;;;;;;;28.91;42.33;101363.34;144993;569;5002;-87
2021/07/25 06:09:11;;;;;;;5.68;3.95;;;;;;;28.91;42.59;101362.47;144994;656;5002;-82
2021/07/25 06:11:59;;;;;;;5.70;3.83;;;;;;;28.86;42.68;101362.63;144994;654;5003;-81
2021/07/25 06:14:37;;;;;;;8.63;4.30;;;;;;;28.98;42.96;101361.28;144994;591;5002;-85
2021/07/25 06:17:08;;;;;;;4.82;4.22;;;;;;;29.11;42.50;101370.62;144993;647;5002;-89
2021/07/25 06:19:38;;;;;;;6.45;3.83;;;;;;;29.18;42.67;101367.72;144994;586;5002;-87
2021/07/25 06:22:07;;;;;;;7.82;4.62;;;;;;;29.31;42.78;101369.88;144994;591;5002;-87
2021/07/25 06:24:37;;;;;;;5.10;4.07;;;;;;;29.41;42.53;101373.06;144994;610;5002;-82
2021/07/25 06:27:15;;;;;;;5.82;3.78;;;;;;;29.54;41.93;101372.59;144994;583;5002;-88
2021/07/25 06:29:51;;;;;;;6.20;4.10;;;;;;;29.64;42.33;101365.97;144994;627;5002;-88
2021/07/25 06:33:00;;;;;;;7.50;4.40;;;;;;;29.77;42.22;101359.16;144994;583;5002;-88
2021/07/25 06:35:48;;;;;;;8.93;4.30;;;;;;;29.94;41.93;101368.31;144994;579;5002;-86
2021/07/25 06:38:20;;;;;;;9.88;4.30;;;;;;;29.92;41.60;101367.53;144994;573;5002;-86
2021/07/25 06:40:56;;;;;;;5.10;3.70;;;;;;;29.79;42.07;101369.84;144994;572;5002;-87
2021/07/25 06:43:24;;;;;;;7.28;3.60;;;;;;;29.70;42.36;101368.38;144994;656;5002;-89
2021/07/25 06:45:50;;;;;;;7.03;3.97;;;;;;;29.34;42.86;101368.91;144994;577;5002;-86
2021/07/25 06:48:22;;;;;;;4.93;3.62;;;;;;;29.30;42.98;101372.59;144994;611;5002;-87
2021/07/25 06:50:50;;;;;;;7.28;4.00;;;;;;;29.07;43.27;101368.97;144994;564;5002;-87
2021/07/25 06:53:40;;;;;;;;;;;;;;;;;;;;;
2021/07/25 06:56:34;;;;;;;4.68;3.72;;;;;;;29.13;43.07;101378.59;144993;608;5005;-81
2021/07/25 06:59:24;;;;;;;;;;;;;;;;;;;;;
2021/07/25 07:02:30;;;;;;;;;;;;;;;;;;;;;
2021/07/25 07:05:22;;;;;;;3.87;2.60;;;;;;;29.48;42.22;101376.37;144994;597;5004;-87
2021/07/25 07:07:51;;;;;;;3.92;3.00;;;;;;;29.63;41.51;101377.56;144994;563;5004;-87
2021/07/25 07:10:21;;;;;;;5.57;3.12;;;;;;;29.45;41.90;101379.19;144994;578;5004;-86
2021/07/25 07:12:48;;;;;;;6.18;3.08;;;;;;;29.34;41.92;101376.91;144994;596;5004;-87
2021/07/25 07:15:16;;;;;;;5.43;3.28;;;;;;;29.27;42.55;101378.97;144994;626;5004;-86
2021/07/25 07:17:43;;;;;;;6.57;3.47;;;;;;;29.14;42.51;101377.62;144994;586;5004;-88
2021/07/25 07:20:11;;;;;;;6.25;3.12;;;;;;;29.06;43.08;101375.25;144994;624;5004;-88
2021/07/25 07:22:38;;;;;;;5.62;3.45;;;;;;;28.99;43.93;101376.41;144994;660;5004;-88
2021/07/25 07:25:07;;;;;;;6.53;3.17;;;;;;;29.23;42.86;101377.31;144994;582;5004;-87
2021/07/25 07:27:35;;;;;;;7.15;3.55;;;;;;;29.10;44.76;101381.38;144994;585;5004;-88
2021/07/25 07:30:02;;;;;;;8.88;3.58;;;;;;;29.30;42.80;101378.84;144994;725;5004;-87
2021/07/25 07:32:29;;;;;;;5.07;3.40;;;;;;;29.43;42.90;101378.34;144994;567;5004;-87
2021/07/25 07:34:55;;;;;;;3.92;3.00;;;;;;;29.37;42.83;101379.47;144994;566;5004;-86
2021/07/25 07:37:25;;;;;;;7.93;3.40;;;;;;;29.06;44.41;101383.25;144994;573;5004;-89
2021/07/25 07:40:03;;;;;;;5.30;3.40;;;;;;;29.21;43.60;101371.16;144994;585;5004;-87
2021/07/25 07:42:46;;;;;;;6.00;3.20;;;;;;;29.40;43.34;101387.38;144994;568;5004;-82
2021/07/25 07:45:35;;;;;;;4.45;3.47;;;;;;;29.65;42.70;101383.72;144994;649;5004;-87
2021/07/25 07:48:15;;;;;;;4.57;3.33;;;;;;;29.73;42.40;101391.44;144994;596;5014;-83
2021/07/25 07:51:03;;;;;;;;;;;;;;;;;;;;;
2021/07/25 07:53:39;;;;;;;8.73;3.28;;;;;;;29.79;42.98;101393.91;144994;587;5002;-84
2021/07/25 07:56:23;;;;;;;7.68;3.40;;;;;;;29.76;42.64;101386.84;144994;606;5002;-88
2021/07/25 07:59:10;;;;;;;5.32;3.67;;;;;;;29.45;43.97;101385.41;144994;585;5002;-88
2021/07/25 08:01:46;;;;;;;5.80;3.30;;;;;;;29.59;43.24;101382.19;144994;569;5002;-87
2021/07/25 08:04:26;;;;;;;6.43;3.25;;;;;;;29.75;43.24;101393.16;144994;579;5002;-87
2021/07/25 08:07:01;;;;;;;8.05;3.22;;;;;;;29.92;42.76;101386.25;144994;609;5002;-87
2021/07/25 08:09:34;;;;;;;5.18;3.17;;;;;;;29.74;43.10;101385.19;144994;723;5002;-86
2021/07/25 08:12:16;;;;;;;4.00;2.90;;;;;;;29.99;42.18;101391.31;144994;589;5002;-90
2021/07/25 08:15:01;;;;;;;4.35;3.25;;;;;;;29.97;42.08;101387.84;144994;605;5002;-86
2021/07/25 08:17:41;;;;;;;5.78;3.05;;;;;;;29.80;41.10;101388.50;144994;578;5002;-90
2021/07/25 08:20:16;;;;;;;4.47;3.00;;;;;;;29.99;40.85;101388.63;144994;607;5002;-86
2021/07/25 08:22:53;;;;;;;6.53;3.33;;;;;;;29.63;42.23;101380.25;144994;591;5002;-89
2021/07/25 08:25:19;;;;;;;4.90;3.10;;;;;;;29.74;42.38;101380.69;144994;604;5002;-86
2021/07/25 08:27:49;;;;;;;4.47;2.40;;;;;;;30.00;40.73;101386.81;144994;591;5002;-87
2021/07/25 08:30:15;;;;;;;4.10;2.50;;;;;;;30.01;38.33;101377.88;144994;635;5002;-87
2021/07/25 08:32:42;;;;;;;5.15;2.70;;;;;;;30.05;37.81;101370.56;144994;572;5002;-85
2021/07/25 08:35:09;;;;;;;3.65;2.50;;;;;;;29.93;37.80;101371.97;144994;579;5002;-88
2021/07/25 08:37:35;;;;;;;6.15;2.47;;;;;;;29.82;37.94;101367.03;144994;598;5002;-89
2021/07/25 08:40:03;;;;;;;3.83;2.58;;;;;;;29.91;38.55;101365.78;144994;581;5002;-87
2021/07/25 08:42:36;;;;;;;7.80;2.87;;;;;;;30.09;37.40;101358.81;144994;586;5002;-88
2021/07/25 08:45:03;;;;;;;4.85;2.50;;;;;;;30.18;37.53;101353.06;144994;565;5002;-87
2021/07/25 08:47:40;;;;;;;5.15;2.83;;;;;;;30.09;37.18;101362.34;144994;644;5002;-86
2021/07/25 08:50:15;;;;;;;5.55;2.28;;;;;;;30.25;38.36;101359.03;144994;582;5002;-89
2021/07/25 08:52:44;;;;;;;5.32;2.90;;;;;;;30.21;37.90;101363.66;144994;563;5002;-88
2021/07/25 08:55:15;;;;;;;6.50;3.00;;;;;;;30.18;38.28;101361.97;144994;589;5002;-86
2021/07/25 08:57:48;;;;;;;4.30;2.80;;;;;;;30.30;38.72;101368.59;144994;573;5002;-87
2021/07/25 09:00:28;;;;;;;3.40;2.50;;;;;;;30.42;38.27;101372.59;144994;563;5002;-89
2021/07/25 09:03:12;;;;;;;3.58;2.90;;;;;;;30.35;38.01;101363.94;144994;593;5002;-87
2021/07/25 09:05:46;;;;;;;4.30;3.33;;;;;;;30.31;38.15;101375.69;144994;592;5002;-86
2021/07/25 09:08:14;;;;;;;4.62;3.00;;;;;;;30.39;38.50;101370.91;144994;572;5002;-87
2021/07/25 09:10:41;;;;;;;4.37;3.10;;;;;;;30.41;38.60;101372.66;144994;616;5002;-87
2021/07/25 09:13:08;;;;;;;8.63;3.70;;;;;;;30.09;40.12;101374.88;144994;594;5002;-86
2021/07/25 09:15:36;;;;;;;5.97;3.28;;;;;;;30.07;41.09;101369.59;144994;581;5002;-86
2021/07/25 09:18:06;;;;;;;7.25;3.20;;;;;;;29.90;41.81;101380.13;144993;579;5003;-87
2021/07/25 09:20:42;;;;;;;7.37;3.60;;;;;;;29.61;42.44;101377.62;144994;671;5002;-86
2021/07/25 09:23:19;;;;;;;4.30;3.10;;;;;;;29.44;42.37;101377.44;144994;691;5002;-86
2021/07/25 09:25:53;;;;;;;6.90;3.20;;;;;;;29.55;42.22;101369.84;144994;608;5002;-87
2021/07/25 09:28:20;;;;;;;;;;;;;;;29.42;42.29;101368.59;144998;913;5002;-89
2021/07/25 09:30:48;;;;;;;3.15;2.85;;;;;;;29.45;41.53;101368.50;144998;564;5002;-87
2021/07/25 09:33:32;;;;;;;7.62;3.05;;;;;;;29.24;42.04;101370.16;144994;642;5002;-86
2021/07/25 09:36:11;;;;;;;5.93;2.95;;;;;;;29.28;41.13;101356.63;144994;577;4566;-87
2021/07/25 09:38:40;;;;;;;4.35;2.58;;;;;;;29.35;41.37;101356.38;144994;570;4572;-87
2021/07/25 09:41:23;;;;;;;4.43;2.67;;;;;;;29.57;41.01;101356.41;144994;696;4572;-87
2021/07/25 09:44:01;;;;;;;4.07;2.70;;;;;;;29.55;41.19;101364.50;144992;570;6002;-87
2021/07/25 09:46:42;;;;;;;6.37;3.05;;;;;;;29.63;40.68;101364.19;144992;585;6002;-87
2021/07/25 09:49:09;;;;;;;3.53;2.35;;;;;;;29.77;39.14;101369.88;144992;573;6002;-89
2021/07/25 09:51:36;;;;;;;6.15;2.60;;;;;;;29.78;40.04;101365.37;144992;598;6002;-86
2021/07/25 09:54:31;;;;;;;4.75;2.37;;;;;;;29.73;40.37;101376.25;144992;570;6002;-83
2021/07/25 09:57:11;;;;;;;4.72;2.50;;;;;;;29.86;39.48;101366.00;144992;657;6004;-86
2021/07/25 09:59:37;;;;;;;4.07;2.20;;;;;;;29.83;38.97;101364.31;144992;603;6004;-88
2021/07/25 10:02:04;;;;;;;3.05;2.37;;;;;;;29.89;39.07;101362.31;144992;595;6004;-85
2021/07/25 10:04:31;;;;;;;3.65;2.40;;;;;;;29.84;39.09;101363.38;144992;580;6004;-88
2021/07/25 10:07:03;;;;;;;3.60;2.42;;;;;;;30.00;38.35;101366.28;144992;621;6004;-85
2021/07/25 10:09:30;;;;;;;6.00;2.58;;;;;;;29.96;38.12;101369.16;144992;607;6004;-86
2021/07/25 10:12:01;;;;;;;7.85;3.67;;;;;;;29.97;38.45;101357.50;144992;602;6004;-86
2021/07/25 10:14:30;;;;;;;7.32;2.50;;;;;;;30.11;38.80;101356.94;144992;578;6004;-87
2021/07/25 10:16:59;;;;;;;3.53;2.95;;;;;;;30.09;38.23;101359.66;144991;593;6000;-87
2021/07/25 10:19:42;;;;;;;3.80;2.40;;;;;;;30.31;37.83;101351.59;144992;586;6002;-87
2021/07/25 10:22:13;;;;;;;3.10;2.42;;;;;;;30.28;37.58;101349.06;144992;563;6002;-86
2021/07/25 10:24:43;;;;;;;4.75;3.10;;;;;;;30.32;38.48;101350.66;144992;611;6002;-86
2021/07/25 10:27:10;;;;;;;4.65;2.87;;;;;;;30.35;37.61;101352.31;144992;627;6002;-85
2021/07/25 10:29:54;;;;;;;4.68;3.40;;;;;;;30.08;38.53;101357.06;144992;603;6002;-88
2021/07/25 10:32:21;;;;;;;;;;;;;;;30.08;37.84;101352.56;144997;910;6002;-87
2021/07/25 10:34:49;;;;;;;5.07;2.92;;;;;;;30.29;37.75;101344.56;144997;604;6002;-87
2021/07/25 10:37:16;;;;;;;4.20;2.80;;;;;;;30.29;37.50;101352.59;144992;576;6002;-89
2021/07/25 10:39:46;;;;;;;4.93;2.90;;;;;;;30.20;37.54;101340.47;144992;575;6002;-87
2021/07/25 10:42:17;;;;;;;4.37;2.70;;;;;;;30.26;37.58;101336.66;144992;570;6002;-87
2021/07/25 10:44:44;;;;;;;5.80;3.03;;;;;;;30.23;37.86;101334.13;144992;569;6002;-86
2021/07/25 10:47:23;;;;;;;6.15;3.20;;;;;;;30.25;38.25;101335.78;144992;592;6002;-85
2021/07/25 10:50:21;;;;;;;12.65;3.42;;;;;;;30.24;37.40;101347.44;144992;585;6002;-87
2021/07/25 10:53:19;;;;;;;4.78;3.33;;;;;;;30.34;37.24;101334.53;144992;613;6004;-87
2021/07/25 10:55:46;;;;;;;4.40;2.45;;;;;;;30.26;36.87;101340.22;144992;581;6002;-87
2021/07/25 10:58:15;;;;;;;4.22;2.83;;;;;;;30.22;36.97;101325.22;144992;577;6002;-86
2021/07/25 11:00:51;;;;;;;6.97;3.00;;;;;;;30.11;37.46;101320.31;144992;577;6002;-85
2021/07/25 11:03:49;;;;;;;5.90;3.83;;;;;;;30.23;37.04;101324.28;144992;589;6002;-88
2021/07/25 11:06:17;;;;;;;5.05;2.75;;;;;;;30.30;38.27;101315.03;144992;566;6004;-87
2021/07/25 11:08:47;;;;;;;8.45;3.30;;;;;;;30.28;37.63;101321.41;144992;626;6004;-88
2021/07/25 11:11:54;;;;;;;3.90;2.87;;;;;;;30.25;37.40;101317.03;144992;585;6004;-89
2021/07/25 11:15:12;;;;;;;3.47;2.90;;;;;;;30.23;37.65;101305.53;144992;576;6002;-90
2021/07/25 11:17:48;;;;;;;4.65;3.42;;;;;;;30.25;38.17;101308.16;144992;609;6002;-90
2021/07/25 11:21:04;;;;;;;3.62;2.78;;;;;;;30.18;37.88;101311.09;144992;605;6002;-91
2021/07/25 11:23:44;;;;;;;5.87;3.00;;;;;;;30.18;37.77;101310.22;144992;564;6002;-84
2021/07/25 11:26:34;;;;;;;6.85;4.65;;;;;;;30.09;38.64;101306.12;144992;569;6002;-85
2021/07/25 11:29:06;;;;;;;8.15;2.87;;;;;;;30.13;38.09;101312.22;144992;563;6002;-88
2021/07/25 11:31:35;;;;;;;4.32;2.90;;;;;;;30.20;38.72;101311.03;144992;569;6002;-88
2021/07/25 11:34:03;;;;;;;7.00;2.75;;;;;;;30.13;39.13;101306.84;144992;590;6002;-87
2021/07/25 11:36:30;;;;;;;5.53;2.83;;;;;;;30.08;39.09;101301.69;144992;594;6002;-90
2021/07/25 11:39:01;;;;;;;4.03;2.97;;;;;;;30.25;38.59;101314.38;144992;579;6002;-86
2021/07/25 11:41:33;;;;;;;3.72;2.67;;;;;;;30.16;38.50;101314.75;144992;653;6002;-90
2021/07/25 11:44:08;;;;;;;6.65;2.60;;;;;;;30.18;38.19;101320.94;144992;565;6002;-84
2021/07/25 11:46:45;;;;;;;3.92;2.90;;;;;;;30.30;37.80;101309.69;144992;573;6002;-85
2021/07/25 11:49:17;;;;;;;4.85;2.75;;;;;;;30.21;38.34;101313.62;144992;704;6002;-89
2021/07/25 11:51:52;;;;;;;5.75;3.00;;;;;;;30.22;38.98;101309.16;144991;646;6002;-90
2021/07/25 11:54:39;;;;;;;6.55;2.72;;;;;;;30.27;38.16;101299.09;144992;597;6002;-87
2021/07/25 11:57:13;;;;;;;4.37;2.92;;;;;;;30.33;38.19;101306.88;144992;564;6002;-88
2021/07/25 11:59:57;;;;;;;4.68;3.05;;;;;;;30.38;37.48;101312.06;144992;572;6002;-88
2021/07/25 12:02:26;;;;;;;;;;;;;;;30.42;37.77;101305.66;144997;912;6002;-87
2021/07/25 12:04:55;;;;;;;6.55;3.00;;;;;;;30.37;38.32;101300.44;144997;663;6002;-85
2021/07/25 12:07:34;;;;;;;6.65;2.97;;;;;;;30.28;38.34;101306.22;144991;583;6002;-89
2021/07/25 12:10:07;;;;;;;4.07;3.17;;;;;;;30.34;38.70;101303.25;144992;583;6002;-86
2021/07/25 12:12:38;;;;;;;4.20;3.03;;;;;;;30.46;38.60;101298.34;144992;600;6002;-88
2021/07/25 12:15:11;;;;;;;5.45;4.87;;;;;;;30.59;38.13;101298.66;144992;603;6002;-88
2021/07/25 12:17:50;;;;;;;4.00;3.53;;;;;;;30.66;36.99;101301.00;144991;632;6002;-87
2021/07/25 12:20:43;;;;;;;5.55;4.20;;;;;;;30.59;36.26;101298.66;144992;566;6002;-88
2021/07/25 12:23:10;;;;;;;10.07;8.05;;;;;;;30.50;37.77;101298.13;144992;661;6004;-88
2021/07/25 12:25:53;;;;;;;6.57;4.35;;;;;;;30.38;37.48;101302.25;144992;572;6004;-88
2021/07/25 12:28:25;;;;;;;10.63;6.25;;;;;;;30.52;37.75;101295.38;144992;568;6004;-88
2021/07/25 12:30:59;;;;;;;10.65;8.02;;;;;;;30.46;38.31;101291.16;144992;603;6004;-86